Time;durP1;ratioP1;P1;durP2;ratioP2;P2;SDS_P1;SDS_P2;PMS_P1;PMS_P2;Temp;Humidity;BMP_temperature;BMP_pressure;BME280_temperature;BME280_humidity;BME280_pressure;Samples;Min_cycle;Max_cycle;Signal;HPM_P1;HPM_P2
2023/05/29 00:00:33;;;;;;;13.77;7.30;;;;;;;18.80;46.85;97452.13;5012798;28;20200;-71
2023/05/29 00:02:58;;;;;;;16.77;6.40;;;;;;;18.75;47.13;97454.56;5016089;28;20175;-72
2023/05/29 00:05:24;;;;;;;8.83;7.10;;;;;;;18.73;47.30;97457.41;5012069;28;22297;-72
2023/05/29 00:07:50;;;;;;;12.87;6.83;;;;;;;18.70;47.14;97454.31;5019255;28;20176;-70
2023/05/29 00:10:16;;;;;;;10.87;6.50;;;;;;;18.73;47.50;97445.97;5017084;28;20551;-70
2023/05/29 00:12:42;;;;;;;14.40;7.00;;;;;;;18.67;47.72;97452.06;5009546;28;20489;-70
2023/05/29 00:15:09;;;;;;;11.73;6.50;;;;;;;18.51;48.02;97459.38;5009251;28;20996;-71
2023/05/29 00:17:35;;;;;;;14.43;7.17;;;;;;;18.52;47.86;97460.16;5018368;28;20190;-69
2023/05/29 00:20:02;;;;;;;11.93;7.47;;;;;;;18.56;47.78;97462.22;5017908;28;20419;-70
2023/05/29 00:22:28;;;;;;;11.10;6.73;;;;;;;18.61;47.40;97451.00;5008845;28;20180;-70
2023/05/29 00:24:53;;;;;;;11.60;6.60;;;;;;;18.55;47.53;97447.31;5008616;28;20967;-71
2023/05/29 00:27:19;;;;;;;9.80;6.53;;;;;;;18.42;47.83;97449.91;5007652;28;20684;-71
2023/05/29 00:29:45;;;;;;;10.30;6.23;;;;;;;18.34;47.85;97450.09;5014311;28;20175;-71
2023/05/29 00:32:11;;;;;;;10.30;6.20;;;;;;;18.33;48.00;97451.94;5015778;28;20251;-71
2023/05/29 00:34:36;;;;;;;10.37;6.30;;;;;;;18.34;47.97;97445.59;5012591;28;20450;-71
2023/05/29 00:37:02;;;;;;;8.83;5.93;;;;;;;18.34;47.90;97437.63;5024980;28;20262;-71
2023/05/29 00:39:28;;;;;;;8.17;5.80;;;;;;;18.27;48.01;97428.81;5008979;28;20176;-70
2023/05/29 00:41:53;;;;;;;11.97;6.80;;;;;;;18.32;47.88;97437.03;5013845;28;20450;-71
2023/05/29 00:44:19;;;;;;;10.90;6.00;;;;;;;18.23;48.17;97435.53;5016484;28;20188;-70
2023/05/29 00:46:52;;;;;;;8.10;6.00;;;;;;;18.16;48.22;97432.84;5022733;28;20301;-70
2023/05/29 00:49:19;;;;;;;9.27;5.87;;;;;;;18.05;48.67;97433.38;5010623;28;20192;-71
2023/05/29 00:51:44;;;;;;;8.80;5.93;;;;;;;18.06;48.65;97440.31;5009161;28;20516;-71
2023/05/29 00:54:12;;;;;;;10.43;6.60;;;;;;;18.01;48.56;97442.75;5008816;28;20514;-71
2023/05/29 00:56:44;;;;;;;11.43;5.93;;;;;;;18.00;48.94;97428.66;5024274;28;20645;-71
2023/05/29 00:59:11;;;;;;;13.50;6.10;;;;;;;18.02;48.94;97439.91;5020546;28;20423;-72
2023/05/29 01:01:36;;;;;;;9.63;6.67;;;;;;;17.95;48.96;97428.41;5014975;28;20500;-71
2023/05/29 01:04:03;;;;;;;12.33;6.23;;;;;;;18.00;48.75;97431.31;5030316;28;20492;-72
2023/05/29 01:06:29;;;;;;;10.30;6.37;;;;;;;17.98;48.66;97432.53;5024762;28;20279;-70
2023/05/29 01:08:55;;;;;;;10.13;6.00;;;;;;;17.95;48.82;97433.72;5025169;28;20454;-70
2023/05/29 01:11:37;;;;;;;10.80;6.20;;;;;;;17.90;48.80;97438.78;5019611;28;20204;-72
2023/05/29 01:14:06;;;;;;;8.27;6.63;;;;;;;17.85;49.04;97434.06;5012003;28;20494;-71
2023/05/29 01:16:38;;;;;;;11.30;6.30;;;;;;;17.81;49.20;97432.78;5021159;28;20420;-71
2023/05/29 01:19:22;;;;;;;9.90;5.60;;;;;;;17.75;48.93;97430.94;5007303;28;20494;-72
2023/05/29 01:21:56;;;;;;;8.70;5.47;;;;;;;17.81;48.78;97438.09;4995204;28;21163;-71
2023/05/29 01:24:37;;;;;;;8.53;6.40;;;;;;;17.80;48.74;97431.16;5009023;28;20427;-70
2023/05/29 01:27:09;;;;;;;9.07;6.47;;;;;;;17.80;48.96;97429.34;5016934;28;20430;-73
2023/05/29 01:29:38;;;;;;;10.30;6.30;;;;;;;17.72;48.97;97428.66;5015356;28;20417;-73
2023/05/29 01:32:04;;;;;;;7.60;5.60;;;;;;;17.73;48.74;97425.00;5016128;28;20529;-71
2023/05/29 01:34:30;;;;;;;9.20;5.70;;;;;;;17.67;49.27;97421.28;5031203;28;20426;-70
2023/05/29 01:36:56;;;;;;;8.90;5.57;;;;;;;17.68;49.09;97416.78;5017760;28;20427;-72
2023/05/29 01:39:21;;;;;;;8.70;5.63;;;;;;;17.47;49.31;97427.22;5010653;28;20179;-71
2023/05/29 01:41:47;;;;;;;10.73;5.20;;;;;;;17.48;49.55;97428.88;4994602;28;20283;-72
2023/05/29 01:44:13;;;;;;;9.63;4.97;;;;;;;17.46;49.57;97427.44;5011312;28;20183;-70
2023/05/29 01:46:40;;;;;;;12.37;5.53;;;;;;;17.42;49.56;97421.69;5026035;28;20180;-71
2023/05/29 01:49:07;;;;;;;9.20;5.10;;;;;;;17.44;49.78;97434.75;5016743;28;20431;-70
2023/05/29 01:51:32;;;;;;;10.53;5.90;;;;;;;17.42;49.75;97434.09;5047176;28;20957;-72
2023/05/29 01:54:01;;;;;;;10.60;5.67;;;;;;;17.32;50.25;97439.75;5017271;28;20486;-70
2023/05/29 01:56:28;;;;;;;7.90;5.90;;;;;;;17.29;49.88;97437.47;5013075;28;20202;-70
2023/05/29 01:58:55;;;;;;;8.67;5.40;;;;;;;17.13;50.49;97436.72;5013292;28;20419;-71
2023/05/29 02:01:24;;;;;;;14.00;6.33;;;;;;;17.22;50.36;97439.22;5017251;28;20439;-70
2023/05/29 02:03:50;;;;;;;11.40;6.47;;;;;;;17.23;50.20;97440.88;5022195;28;20915;-72
2023/05/29 02:06:16;;;;;;;11.07;5.70;;;;;;;17.23;50.39;97441.69;5012830;28;20873;-72
2023/05/29 02:08:42;;;;;;;19.43;5.90;;;;;;;17.23;50.22;97441.69;5018889;28;20517;-72
2023/05/29 02:11:07;;;;;;;8.87;5.67;;;;;;;17.24;49.75;97448.63;5015424;28;20285;-71
2023/05/29 02:13:33;;;;;;;8.30;5.40;;;;;;;17.10;50.25;97433.63;5024337;28;20266;-71
2023/05/29 02:15:58;;;;;;;8.93;5.40;;;;;;;17.11;50.29;97443.22;5013762;28;20243;-70
2023/05/29 02:18:24;;;;;;;8.83;5.70;;;;;;;17.02;50.58;97435.38;5019099;28;20657;-71
2023/05/29 02:20:49;;;;;;;11.20;6.17;;;;;;;16.98;50.75;97434.13;4981472;28;20235;-72
2023/05/29 02:23:15;;;;;;;10.10;6.13;;;;;;;16.89;50.75;97443.13;5011234;28;20719;-71
2023/05/29 02:25:41;;;;;;;12.87;5.93;;;;;;;16.86;50.62;97439.03;5017335;28;20215;-70
2023/05/29 02:28:07;;;;;;;10.13;6.00;;;;;;;16.79;50.95;97434.66;5012920;28;20181;-70
2023/05/29 02:30:32;;;;;;;8.13;5.40;;;;;;;16.71;51.62;97433.78;5015887;28;20953;-70
2023/05/29 02:32:58;;;;;;;7.50;5.23;;;;;;;16.68;51.05;97436.00;5017096;28;20200;-71
2023/05/29 02:35:23;;;;;;;8.00;5.50;;;;;;;16.68;51.05;97431.50;5012803;28;20231;-71
2023/05/29 02:37:50;;;;;;;8.67;5.60;;;;;;;16.72;50.82;97430.13;5016316;28;20263;-71
2023/05/29 02:40:16;;;;;;;9.93;5.67;;;;;;;16.69;51.04;97435.78;5014013;28;20183;-70
2023/05/29 02:42:41;;;;;;;8.67;5.60;;;;;;;16.64;51.22;97437.38;5018597;28;20466;-70
2023/05/29 02:45:07;;;;;;;8.77;6.27;;;;;;;16.63;51.30;97433.06;5011336;28;20451;-71
2023/05/29 02:47:33;;;;;;;9.40;5.23;;;;;;;16.70;51.26;97442.72;5016853;28;20188;-70
2023/05/29 02:49:58;;;;;;;9.30;6.40;;;;;;;16.65;51.06;97434.53;5011383;28;20192;-69
2023/05/29 02:52:23;;;;;;;8.73;5.90;;;;;;;16.65;50.98;97441.66;5013455;28;20300;-70
2023/05/29 02:54:49;;;;;;;10.03;5.97;;;;;;;16.31;51.87;97441.22;5011058;28;20177;-73
2023/05/29 02:57:15;;;;;;;11.13;5.20;;;;;;;16.35;51.84;97426.66;5014053;28;20247;-72
2023/05/29 02:59:40;;;;;;;8.23;5.60;;;;;;;16.46;51.46;97425.34;5008883;28;20239;-71
2023/05/29 03:02:06;;;;;;;12.20;5.40;;;;;;;16.45;51.87;97422.88;5022795;28;20191;-71
2023/05/29 03:04:32;;;;;;;8.17;5.43;;;;;;;16.47;51.17;97410.31;5011588;28;20263;-69
2023/05/29 03:06:57;;;;;;;8.33;4.90;;;;;;;16.42;51.31;97413.50;5013845;28;20830;-71
2023/05/29 03:09:23;;;;;;;9.27;5.70;;;;;;;16.38;51.47;97412.22;5014996;28;20661;-71
2023/05/29 03:11:50;;;;;;;9.53;5.40;;;;;;;16.35;51.57;97421.34;5014755;28;20257;-71
2023/05/29 03:14:15;;;;;;;6.10;5.50;;;;;;;16.33;51.54;97415.41;5013186;28;20189;-72
2023/05/29 03:16:43;;;;;;;9.13;5.40;;;;;;;16.35;51.46;97420.50;5017965;28;20916;-71
2023/05/29 03:19:08;;;;;;;11.27;5.53;;;;;;;16.28;51.68;97425.72;5014554;28;20180;-71
2023/05/29 03:21:35;;;;;;;9.20;5.53;;;;;;;16.28;51.87;97412.50;5010121;28;20555;-71
2023/05/29 03:24:02;;;;;;;9.07;5.60;;;;;;;16.18;52.03;97417.25;5010605;28;20190;-71
2023/05/29 03:26:28;;;;;;;10.10;5.93;;;;;;;16.17;51.99;97423.53;5010622;28;20415;-72
2023/05/29 03:28:54;;;;;;;7.53;5.20;;;;;;;16.13;52.12;97429.19;5015796;28;20426;-71
2023/05/29 03:31:19;;;;;;;9.00;6.03;;;;;;;16.12;52.37;97427.56;5008335;28;20336;-70
2023/05/29 03:33:45;;;;;;;7.70;5.53;;;;;;;16.07;52.41;97429.94;5009938;28;20189;-72
2023/05/29 03:36:11;;;;;;;8.43;6.07;;;;;;;16.07;52.44;97426.44;5009507;28;20565;-70
2023/05/29 03:38:36;;;;;;;7.77;4.90;;;;;;;16.00;52.40;97428.19;5016801;28;20183;-70
2023/05/29 03:41:02;;;;;;;9.80;5.50;;;;;;;16.07;52.43;97429.94;5004281;28;20217;-70
2023/05/29 03:43:27;;;;;;;12.30;5.63;;;;;;;16.06;52.30;97425.63;5000856;28;20184;-72
2023/05/29 03:45:53;;;;;;;6.93;5.30;;;;;;;16.00;52.53;97417.63;5023114;28;20191;-71
2023/05/29 03:48:18;;;;;;;9.43;5.27;;;;;;;15.97;52.69;97424.91;5024489;28;20321;-71
2023/05/29 03:50:45;;;;;;;7.50;5.33;;;;;;;15.96;52.51;97420.63;5011782;28;20643;-71
2023/05/29 03:53:11;;;;;;;11.57;5.00;;;;;;;15.97;52.45;97418.81;5018011;28;20227;-70
2023/05/29 03:55:36;;;;;;;6.30;5.00;;;;;;;15.82;52.70;97424.03;5008173;28;20440;-71
2023/05/29 03:58:02;;;;;;;8.73;5.13;;;;;;;15.89;52.97;97429.44;5021067;28;20237;-71
2023/05/29 04:00:27;;;;;;;11.20;5.53;;;;;;;15.78;52.98;97430.69;5016775;28;20253;-71
2023/05/29 04:02:54;;;;;;;8.23;5.17;;;;;;;15.90;52.84;97437.22;5015715;28;20184;-71
2023/05/29 04:05:20;;;;;;;8.07;5.20;;;;;;;15.98;52.66;97438.94;4998589;28;20237;-70
2023/05/29 04:07:45;;;;;;;9.43;5.20;;;;;;;15.95;52.92;97439.31;5013771;28;20502;-71
2023/05/29 04:10:11;;;;;;;9.17;5.70;;;;;;;15.92;53.18;97444.94;5017254;28;20192;-71
2023/05/29 04:12:36;;;;;;;8.17;5.70;;;;;;;15.90;53.27;97452.22;5012430;28;20357;-72
2023/05/29 04:15:02;;;;;;;9.20;5.90;;;;;;;15.88;53.66;97456.91;5002915;28;20242;-71
2023/05/29 04:17:28;;;;;;;9.80;5.60;;;;;;;15.95;53.13;97460.44;5015365;28;20191;-69
2023/05/29 04:19:53;;;;;;;16.17;6.47;;;;;;;15.91;53.55;97462.63;5016955;28;20431;-71
2023/05/29 04:22:19;;;;;;;7.60;5.27;;;;;;;15.97;53.73;97463.75;5009466;28;20232;-70
2023/05/29 04:24:46;;;;;;;8.13;5.70;;;;;;;15.96;53.74;97457.63;5009542;28;20264;-71
2023/05/29 04:27:13;;;;;;;10.10;5.70;;;;;;;15.99;53.87;97467.03;5008183;28;20435;-71
2023/05/29 04:29:42;;;;;;;7.70;5.40;;;;;;;16.08;53.74;97465.09;5018300;28;20431;-72
2023/05/29 04:32:09;;;;;;;7.20;5.30;;;;;;;16.11;53.67;97478.81;5003031;28;20463;-72
2023/05/29 04:34:35;;;;;;;8.90;5.37;;;;;;;16.10;53.60;97476.31;5020748;28;20832;-71
2023/05/29 04:37:02;;;;;;;10.30;5.63;;;;;;;16.13;53.41;97479.41;5018941;28;20423;-72
2023/05/29 04:39:28;;;;;;;8.13;5.53;;;;;;;16.20;53.14;97482.16;5010982;28;20215;-72
2023/05/29 04:41:53;;;;;;;10.60;5.90;;;;;;;16.17;53.74;97479.06;5016502;28;20455;-71
2023/05/29 04:44:19;;;;;;;7.53;5.57;;;;;;;16.23;53.83;97481.81;5017803;28;20254;-72
2023/05/29 04:46:44;;;;;;;7.40;5.17;;;;;;;16.28;53.68;97481.25;5010073;28;20255;-71
2023/05/29 04:49:13;;;;;;;7.67;5.17;;;;;;;16.32;53.66;97493.13;5021079;28;20188;-70
2023/05/29 04:51:40;;;;;;;8.30;5.30;;;;;;;16.37;53.58;97496.06;5004395;28;20291;-71
2023/05/29 04:54:06;;;;;;;11.93;6.00;;;;;;;16.49;53.72;97491.09;5007327;28;20416;-72
2023/05/29 04:56:32;;;;;;;10.63;5.40;;;;;;;16.54;53.28;97486.09;5007599;28;20796;-70
2023/05/29 04:58:58;;;;;;;8.03;5.77;;;;;;;16.59;52.98;97485.53;5007244;28;20427;-70
2023/05/29 05:01:24;;;;;;;6.50;5.70;;;;;;;16.63;52.86;97484.19;5000248;28;20567;-72
2023/05/29 05:03:49;;;;;;;9.10;5.27;;;;;;;16.70;53.01;97495.66;5006084;28;20427;-72
2023/05/29 05:06:16;;;;;;;8.93;5.50;;;;;;;16.77;53.03;97489.63;5007991;28;20754;-70
2023/05/29 05:08:42;;;;;;;8.57;5.40;;;;;;;16.83;53.00;97494.19;5002882;28;21038;-71
2023/05/29 05:11:07;;;;;;;9.33;6.20;;;;;;;16.85;53.05;97492.97;5008030;28;20439;-70
2023/05/29 05:13:33;;;;;;;9.50;6.30;;;;;;;16.96;52.86;97498.81;5009876;28;20628;-70
2023/05/29 05:15:58;;;;;;;6.57;4.97;;;;;;;17.03;52.67;97500.56;5013772;28;20595;-71
2023/05/29 05:18:24;;;;;;;17.40;5.47;;;;;;;17.07;52.63;97500.19;5015568;28;20215;-69
2023/05/29 05:20:50;;;;;;;10.33;5.50;;;;;;;17.17;52.63;97500.69;5009207;28;20203;-71
2023/05/29 05:23:15;;;;;;;10.13;5.37;;;;;;;17.24;52.46;97503.41;5012809;28;20188;-71
2023/05/29 05:25:40;;;;;;;7.63;5.50;;;;;;;17.38;52.29;97501.75;5014268;28;20711;-71
2023/05/29 05:28:08;;;;;;;13.53;5.30;;;;;;;17.52;51.74;97492.09;5005005;28;20334;-72
2023/05/29 05:30:33;;;;;;;7.57;5.70;;;;;;;17.59;51.12;97491.13;5009595;28;20204;-71
2023/05/29 05:32:59;;;;;;;8.40;5.20;;;;;;;17.70;50.99;97494.28;5007456;28;20520;-71
2023/05/29 05:35:25;;;;;;;9.40;4.90;;;;;;;17.85;50.13;97499.50;4994237;28;20256;-71
2023/05/29 05:37:50;;;;;;;7.23;5.27;;;;;;;17.96;48.08;97493.66;5018561;28;20283;-71
2023/05/29 05:40:16;;;;;;;7.37;5.40;;;;;;;18.10;47.64;97497.28;5011394;28;20196;-71
2023/05/29 05:42:41;;;;;;;9.10;5.37;;;;;;;18.25;47.97;97498.00;5010249;28;20231;-73
2023/05/29 05:45:07;;;;;;;7.70;5.40;;;;;;;18.38;47.95;97494.59;5009936;28;20185;-71
2023/05/29 05:47:33;;;;;;;7.93;5.60;;;;;;;18.51;47.83;97501.81;5015266;28;20188;-71
2023/05/29 05:49:59;;;;;;;10.20;5.03;;;;;;;18.67;47.21;97502.50;5013773;28;20426;-71
2023/05/29 05:52:25;;;;;;;9.23;5.03;;;;;;;18.82;47.20;97507.69;5006499;28;20212;-70
2023/05/29 05:54:51;;;;;;;13.37;5.33;;;;;;;18.96;47.17;97500.63;5000302;28;20176;-70
2023/05/29 05:57:17;;;;;;;8.93;5.10;;;;;;;19.10;45.87;97510.28;5006237;28;21210;-70
2023/05/29 05:59:42;;;;;;;8.40;5.30;;;;;;;19.27;45.39;97505.41;5009132;28;20560;-71
2023/05/29 06:02:08;;;;;;;9.40;5.10;;;;;;;19.40;45.24;97509.94;5013077;28;20252;-73
2023/05/29 06:04:33;;;;;;;8.60;5.33;;;;;;;19.51;44.77;97511.16;5009076;28;20271;-71
2023/05/29 06:06:59;;;;;;;10.73;5.43;;;;;;;19.65;44.50;97518.16;5017164;28;20187;-72
2023/05/29 06:09:25;;;;;;;8.83;5.30;;;;;;;19.82;44.38;97519.59;5014039;28;20184;-72
2023/05/29 06:11:51;;;;;;;9.23;5.37;;;;;;;19.94;44.18;97525.97;4999718;28;20196;-74
2023/05/29 06:14:16;;;;;;;8.23;4.77;;;;;;;20.08;44.27;97527.59;5009419;28;21219;-71
2023/05/29 06:16:41;;;;;;;7.60;5.30;;;;;;;20.26;44.58;97534.94;5016965;28;20169;-72
2023/05/29 06:19:08;;;;;;;9.00;5.00;;;;;;;20.44;44.53;97532.66;5017297;28;20259;-73
2023/05/29 06:21:33;;;;;;;8.73;5.17;;;;;;;20.60;44.21;97528.75;5018787;28;20298;-72
2023/05/29 06:23:58;;;;;;;10.70;5.43;;;;;;;20.76;43.67;97536.31;5022647;28;20596;-70
2023/05/29 06:26:27;;;;;;;10.30;5.20;;;;;;;20.89;43.35;97535.47;5015218;28;20610;-72
2023/05/29 06:28:52;;;;;;;6.83;5.10;;;;;;;21.04;42.02;97532.53;5011201;28;20283;-70
2023/05/29 06:31:18;;;;;;;9.80;5.13;;;;;;;21.13;41.83;97535.78;5013999;28;20545;-71
2023/05/29 06:33:44;;;;;;;9.20;5.47;;;;;;;21.28;41.15;97535.47;5020711;28;20266;-70
2023/05/29 06:36:10;;;;;;;8.60;4.97;;;;;;;21.40;40.56;97539.09;5011287;28;20192;-71
2023/05/29 06:38:36;;;;;;;10.80;5.23;;;;;;;21.52;40.55;97541.91;5024232;28;20434;-70
2023/05/29 06:41:01;;;;;;;12.67;5.83;;;;;;;21.63;40.63;97546.59;5019403;28;20204;-70
2023/05/29 06:43:28;;;;;;;6.67;5.13;;;;;;;21.77;40.45;97559.84;5010910;28;20176;-70
2023/05/29 06:45:53;;;;;;;7.10;4.80;;;;;;;21.89;39.64;97546.59;5009406;28;20185;-70
2023/05/29 06:48:18;;;;;;;10.13;5.00;;;;;;;22.04;39.74;97543.63;5017744;28;20803;-71
2023/05/29 06:50:44;;;;;;;9.00;5.90;;;;;;;22.15;39.41;97548.25;5019801;28;20333;-70
2023/05/29 06:53:09;;;;;;;11.20;5.97;;;;;;;22.25;38.82;97547.75;5010841;28;20252;-71
2023/05/29 06:55:35;;;;;;;8.73;4.90;;;;;;;22.34;39.11;97550.97;5018854;28;20188;-72
2023/05/29 06:58:00;;;;;;;8.33;4.53;;;;;;;22.49;39.17;97550.66;5011399;28;20204;-72
2023/05/29 07:00:27;;;;;;;9.43;5.43;;;;;;;22.61;38.86;97548.88;5043112;28;21285;-70
2023/05/29 07:02:52;;;;;;;8.27;4.97;;;;;;;22.76;38.77;97558.38;5011129;28;20178;-70
2023/05/29 07:05:18;;;;;;;7.20;4.83;;;;;;;22.88;37.54;97567.28;5010543;28;20521;-71
2023/05/29 07:07:43;;;;;;;8.97;5.10;;;;;;;22.97;37.06;97559.78;5017659;28;20187;-71
2023/05/29 07:10:09;;;;;;;6.80;4.67;;;;;;;23.06;37.15;97562.97;5023697;28;20176;-71
2023/05/29 07:12:34;;;;;;;12.13;5.00;;;;;;;23.11;36.94;97569.28;5013395;28;20208;-72
2023/05/29 07:15:00;;;;;;;7.47;4.90;;;;;;;23.20;37.23;97571.66;5012352;28;20420;-73
2023/05/29 07:17:25;;;;;;;5.43;4.47;;;;;;;23.33;37.35;97574.16;5016463;28;20261;-71
2023/05/29 07:19:51;;;;;;;9.13;5.37;;;;;;;23.46;37.42;97574.00;5013153;28;20211;-71
2023/05/29 07:22:16;;;;;;;7.53;4.90;;;;;;;23.55;36.74;97577.19;5010507;28;20204;-71
2023/05/29 07:24:42;;;;;;;8.10;5.20;;;;;;;23.61;35.87;97567.44;5010143;28;20258;-70
2023/05/29 07:27:07;;;;;;;11.10;5.60;;;;;;;23.70;35.73;97568.72;5014689;28;20259;-72
2023/05/29 07:29:32;;;;;;;5.50;4.30;;;;;;;23.69;35.72;97564.41;5021263;28;20274;-70
2023/05/29 07:31:58;;;;;;;9.03;4.70;;;;;;;23.83;36.25;97564.22;5019915;28;20216;-71
2023/05/29 07:34:23;;;;;;;8.33;5.17;;;;;;;23.98;36.05;97578.03;5010011;28;20177;-71
2023/05/29 07:37:04;;;;;;;7.23;4.83;;;;;;;24.07;35.74;97570.47;5013355;28;20192;-72
2023/05/29 07:39:30;;;;;;;7.43;5.07;;;;;;;24.13;35.78;97576.75;5010865;28;20176;-71
2023/05/29 07:41:55;;;;;;;11.80;5.20;;;;;;;24.21;35.78;97584.44;5009856;28;20435;-71
2023/05/29 07:44:21;;;;;;;7.10;5.50;;;;;;;24.32;35.48;97572.94;5020464;28;20427;-72
2023/05/29 07:46:46;;;;;;;11.17;5.20;;;;;;;24.47;35.26;97574.34;5013354;28;20187;-71
2023/05/29 07:49:12;;;;;;;9.90;5.07;;;;;;;24.57;35.37;97579.13;5026269;28;20270;-72
2023/05/29 07:51:38;;;;;;;7.07;4.80;;;;;;;24.69;35.48;97572.75;5015741;28;20219;-70
2023/05/29 07:54:03;;;;;;;6.83;5.10;;;;;;;24.81;35.30;97577.28;5018152;28;20423;-70
2023/05/29 07:56:29;;;;;;;6.90;4.17;;;;;;;24.92;35.15;97581.78;5018876;28;20574;-71
2023/05/29 07:58:56;;;;;;;6.60;4.90;;;;;;;25.03;34.88;97577.44;5017126;28;20903;-71
2023/05/29 08:01:22;;;;;;;7.70;4.60;;;;;;;25.11;34.53;97578.94;5019731;28;20196;-71
2023/05/29 08:03:47;;;;;;;7.30;4.70;;;;;;;25.23;34.31;97579.72;5009355;28;20411;-71
2023/05/29 08:06:13;;;;;;;6.53;4.60;;;;;;;25.32;34.15;97579.38;5011423;28;20211;-72
2023/05/29 08:08:38;;;;;;;6.43;4.60;;;;;;;25.38;33.24;97583.75;5009154;28;20185;-70
2023/05/29 08:11:04;;;;;;;7.97;5.10;;;;;;;25.43;33.07;97576.66;5017928;28;20207;-69
2023/05/29 08:13:30;;;;;;;8.40;4.97;;;;;;;25.40;32.79;97578.97;5009152;28;20201;-71
2023/05/29 08:15:56;;;;;;;5.47;4.43;;;;;;;25.51;32.35;97586.19;5010061;28;20211;-71
2023/05/29 08:18:25;;;;;;;9.03;4.60;;;;;;;25.61;32.24;97583.69;5017335;28;20423;-71
2023/05/29 08:20:51;;;;;;;7.53;4.70;;;;;;;25.74;32.20;97581.75;5010473;28;20299;-71
2023/05/29 08:23:16;;;;;;;6.53;4.73;;;;;;;25.89;32.42;97578.53;5016242;28;20535;-71
2023/05/29 08:25:42;;;;;;;9.60;5.13;;;;;;;26.00;31.71;97582.19;5009344;28;20192;-72
2023/05/29 08:28:07;;;;;;;7.17;4.70;;;;;;;26.10;31.44;97574.34;5008927;28;20184;-70
2023/05/29 08:30:33;;;;;;;9.97;5.17;;;;;;;26.21;31.32;97580.69;5017148;28;20208;-71
2023/05/29 08:32:58;;;;;;;7.43;4.80;;;;;;;26.31;31.30;97580.03;5015592;28;20204;-71
2023/05/29 08:35:24;;;;;;;8.43;4.33;;;;;;;26.43;30.86;97577.25;5010291;28;20661;-71
2023/05/29 08:37:49;;;;;;;7.80;4.60;;;;;;;26.55;30.77;97579.84;5008528;28;20271;-71
2023/05/29 08:40:15;;;;;;;9.50;4.97;;;;;;;26.69;30.62;97573.06;5014648;28;20202;-70
2023/05/29 08:42:46;;;;;;;8.57;4.73;;;;;;;26.78;31.36;97566.22;5019231;28;20649;-70
2023/05/29 08:45:13;;;;;;;6.23;5.00;;;;;;;26.87;30.26;97569.31;5021744;28;20911;-71
2023/05/29 08:47:40;;;;;;;6.07;4.87;;;;;;;26.97;29.91;97573.97;5007066;28;20427;-71
2023/05/29 08:50:07;;;;;;;5.17;4.53;;;;;;;27.05;29.63;97570.88;5015343;28;20426;-70
2023/05/29 08:52:37;;;;;;;10.07;4.80;;;;;;;27.16;29.63;97573.66;5015198;28;20557;-72
2023/05/29 08:55:03;;;;;;;8.93;4.70;;;;;;;27.17;29.33;97573.41;5005060;28;20416;-71
2023/05/29 08:57:30;;;;;;;4.83;4.30;;;;;;;27.29;30.39;97578.66;5023001;28;20450;-71
2023/05/29 08:59:56;;;;;;;7.00;4.80;;;;;;;27.37;29.21;97586.28;5012551;28;20439;-71
2023/05/29 09:02:21;;;;;;;10.87;4.50;;;;;;;27.36;29.28;97584.66;5011359;28;20431;-71
2023/05/29 09:04:52;;;;;;;8.83;4.50;;;;;;;27.48;29.56;97581.03;5010064;28;20263;-70
2023/05/29 09:07:19;;;;;;;8.37;5.00;;;;;;;27.51;29.26;97583.22;5014514;28;20211;-70
2023/05/29 09:09:48;;;;;;;8.50;5.10;;;;;;;27.55;29.01;97576.28;5008996;28;20809;-72
2023/05/29 09:12:17;;;;;;;6.83;5.13;;;;;;;27.63;29.22;97583.09;5017536;28;20455;-72
2023/05/29 09:14:44;;;;;;;7.00;5.00;;;;;;;27.70;29.18;97583.69;5010150;28;20420;-72
2023/05/29 09:17:10;;;;;;;6.23;5.00;;;;;;;27.81;29.08;97584.59;5008772;28;20455;-71
2023/05/29 09:19:37;;;;;;;5.60;4.30;;;;;;;27.81;29.08;97582.72;5007290;28;20446;-70
2023/05/29 09:22:09;;;;;;;6.10;4.70;;;;;;;27.93;29.36;97587.13;5000112;28;20862;-72
2023/05/29 09:24:37;;;;;;;10.43;5.23;;;;;;;27.94;29.04;97594.97;4994751;28;20458;-71
2023/05/29 09:27:07;;;;;;;7.20;5.10;;;;;;;28.04;29.36;97581.59;5033372;28;20513;-71
2023/05/29 09:29:46;;;;;;;8.47;4.90;;;;;;;28.15;29.08;97589.78;5024223;28;20511;-73
2023/05/29 09:32:16;;;;;;;7.53;4.70;;;;;;;28.26;28.60;97585.28;5024839;28;20529;-73
2023/05/29 09:34:42;;;;;;;7.47;5.07;;;;;;;28.33;28.83;97594.78;5061590;28;20508;-72
2023/05/29 09:37:09;;;;;;;7.40;5.00;;;;;;;28.47;28.59;97586.25;5013865;28;20553;-71
2023/05/29 09:39:55;;;;;;;18.43;5.90;;;;;;;28.57;28.48;97585.47;5005062;28;20427;-71
2023/05/29 09:42:20;;;;;;;6.50;4.97;;;;;;;28.71;28.31;97589.34;5003629;28;20435;-71
2023/05/29 09:44:53;;;;;;;5.70;4.80;;;;;;;28.81;28.13;97583.22;5010928;28;20525;-71
2023/05/29 09:47:19;;;;;;;7.00;4.80;;;;;;;28.94;28.40;97580.06;5009925;28;20412;-71
2023/05/29 09:49:46;;;;;;;13.77;5.10;;;;;;;28.98;28.11;97584.94;5012497;28;20437;-71
2023/05/29 09:52:15;;;;;;;7.50;4.97;;;;;;;29.05;28.58;97593.59;5015307;28;20467;-73
2023/05/29 09:54:47;;;;;;;6.37;4.80;;;;;;;29.16;28.34;97589.84;5012049;28;21104;-70
2023/05/29 09:57:14;;;;;;;6.00;4.43;;;;;;;29.40;28.39;97589.41;5013284;28;20441;-72
2023/05/29 09:59:43;;;;;;;7.13;4.87;;;;;;;29.36;27.69;97591.03;5011533;28;20979;-70
2023/05/29 10:02:11;;;;;;;7.83;4.73;;;;;;;29.34;27.28;97583.19;5011938;28;20443;-71
2023/05/29 10:04:38;;;;;;;6.80;5.13;;;;;;;29.42;27.55;97582.66;5020317;28;20807;-71
2023/05/29 10:07:24;;;;;;;9.30;4.20;;;;;;;29.46;27.92;97579.44;5011981;28;20478;-70
2023/05/29 10:09:53;;;;;;;8.23;4.53;;;;;;;29.67;28.04;97575.72;5013558;28;20981;-70
2023/05/29 10:12:20;;;;;;;4.80;4.10;;;;;;;29.71;27.19;97582.19;5017004;28;20470;-73
2023/05/29 10:14:49;;;;;;;6.30;4.40;;;;;;;29.77;27.69;97583.00;5012550;28;20430;-70
2023/05/29 10:17:16;;;;;;;6.30;4.47;;;;;;;29.88;26.94;97584.63;5020979;28;20410;-71
2023/05/29 10:19:42;;;;;;;7.10;4.53;;;;;;;29.99;27.11;97582.00;5031355;28;20431;-71
2023/05/29 10:22:08;;;;;;;7.37;4.30;;;;;;;29.92;26.54;97576.81;5022097;28;20847;-72
2023/05/29 10:24:36;;;;;;;8.30;4.50;;;;;;;29.61;26.74;97581.38;5010730;28;20426;-73
2023/05/29 10:27:02;;;;;;;6.50;4.23;;;;;;;29.95;27.83;97575.50;5021747;28;20431;-74
2023/05/29 10:29:48;;;;;;;6.50;4.60;;;;;;;30.11;26.79;97574.44;5024387;28;20423;-72
2023/05/29 10:32:52;;;;;;;9.53;4.23;;;;;;;30.39;25.95;97568.72;5012345;28;20212;-73
2023/05/29 10:35:22;;;;;;;4.27;3.87;;;;;;;30.53;25.94;97553.56;5032570;28;20464;-73
2023/05/29 10:37:52;;;;;;;6.17;4.30;;;;;;;30.61;25.10;97563.84;5015053;28;20435;-70
2023/05/29 10:40:26;;;;;;;5.27;3.83;;;;;;;30.56;24.85;97552.22;5015893;28;20827;-71
2023/05/29 10:42:54;;;;;;;8.13;4.23;;;;;;;30.71;25.54;97552.19;5016152;28;20449;-70
2023/05/29 10:45:28;;;;;;;7.80;4.20;;;;;;;30.86;25.66;97542.41;5020959;28;20424;-73
2023/05/29 10:47:54;;;;;;;5.60;3.80;;;;;;;31.01;24.77;97547.72;5017545;28;20422;-71
2023/05/29 10:50:38;;;;;;;8.00;3.83;;;;;;;30.87;23.36;97541.31;5021103;28;20430;-71
2023/05/29 10:53:07;;;;;;;5.17;4.00;;;;;;;30.60;23.70;97550.59;5016314;28;20204;-71
2023/05/29 10:55:39;;;;;;;6.17;3.70;;;;;;;30.68;23.70;97549.22;5017951;28;20514;-71
2023/05/29 10:58:06;;;;;;;5.20;3.57;;;;;;;30.74;23.97;97559.75;5012407;28;21189;-71
2023/05/29 11:00:32;;;;;;;6.23;3.73;;;;;;;30.53;23.45;97552.72;5009156;28;20510;-71
2023/05/29 11:03:02;;;;;;;11.10;3.60;;;;;;;30.52;23.50;97545.69;5017622;28;20498;-71
2023/05/29 11:05:27;;;;;;;13.03;3.83;;;;;;;30.60;23.42;97551.41;5017570;28;20176;-70
2023/05/29 11:07:58;;;;;;;4.60;3.53;;;;;;;30.66;23.87;97535.16;5013640;28;20427;-70
2023/05/29 11:10:51;;;;;;;6.67;3.73;;;;;;;30.73;23.83;97536.50;5028219;28;20222;-71
2023/05/29 11:13:27;;;;;;;9.43;3.37;;;;;;;30.70;23.50;97553.28;5009282;28;20466;-71
2023/05/29 11:16:05;;;;;;;6.23;4.30;;;;;;;30.73;23.40;97541.91;5010345;28;20563;-72
2023/05/29 11:18:30;;;;;;;5.30;3.67;;;;;;;30.68;23.28;97550.03;5016290;28;20431;-71
2023/05/29 11:20:57;;;;;;;5.77;3.53;;;;;;;30.61;23.62;97549.50;5025315;28;20935;-71
2023/05/29 11:23:25;;;;;;;5.30;3.87;;;;;;;30.65;22.62;97545.16;5011454;28;20676;-73
2023/05/29 11:25:51;;;;;;;6.00;3.57;;;;;;;30.74;23.11;97548.09;5012973;28;20481;-70
2023/05/29 11:28:16;;;;;;;10.40;4.00;;;;;;;30.74;22.61;97558.94;5023399;28;20958;-71
2023/05/29 11:30:48;;;;;;;7.23;3.80;;;;;;;30.72;22.89;97556.50;5010736;28;20212;-70